Time,TemperatureF,DewpointF,PressureIn,WindDirection,WindDirectionDegrees,WindSpeedMPH,WindSpeedGustMPH,Humidity,HourlyPrecipIn,Conditions,Clouds,dailyrainin,SoftwareType,DateUTC
2013-01-09 00:02:00,45.0,41.0,-100.00,SW,234,0.0,1.0,84,-99.99,,,-99.99,,2013-01-08 23:02:00,
2013-01-09 01:02:00,42.0,38.0,-100.00,SSE,147,0.0,0.0,84,-99.99,,,-99.99,,2013-01-09 00:02:00,
2013-01-09 01:12:00,43.0,39.0,-100.00,SSW,192,0.0,0.0,84,-99.99,,,-99.99,,2013-01-09 00:12:00,
2013-01-09 01:22:00,44.0,40.0,-100.00,SSE,155,0.0,2.0,84,-99.99,,,-99.99,,2013-01-09 00:22:00,
2013-01-09 01:32:00,43.0,38.0,-100.00,ESE,108,0.0,1.0,83,-99.99,,,-99.99,,2013-01-09 00:32:00,
2013-01-09 01:42:00,42.0,37.0,-100.00,East,101,1.0,3.0,83,-99.99,,,-99.99,,2013-01-09 00:42:00,
2013-01-09 01:52:00,40.0,35.0,-100.00,ESE,102,1.0,4.0,83,-99.99,,,-99.99,,2013-01-09 00:52:00,
2013-01-09 02:02:00,40.0,35.0,-100.00,ESE,102,1.0,4.0,83,-99.99,,,-99.99,,2013-01-09 01:02:00,
2013-01-09 02:12:00,39.0,35.0,-100.00,ESE,115,0.0,1.0,84,-99.99,,,-99.99,,2013-01-09 01:12:00,
2013-01-09 02:22:00,40.0,36.0,-100.00,ESE,107,0.0,0.0,84,-99.99,,,-99.99,,2013-01-09 01:22:00,
2013-01-09 02:32:00,42.0,37.0,-100.00,WNW,290,0.0,0.0,83,-99.99,,,-99.99,,2013-01-09 01:32:00,
2013-01-09 02:42:00,41.0,36.0,-100.00,East,101,1.0,4.0,82,-99.99,,,-99.99,,2013-01-09 01:42:00,
2013-01-09 02:52:00,38.0,34.0,-100.00,East,101,4.0,6.0,83,-99.99,,,-99.99,,2013-01-09 01:52:00,
2013-01-09 03:02:00,37.0,33.0,-100.00,East,100,5.0,6.0,85,-99.99,,,-99.99,,2013-01-09 02:02:00,
2013-01-09 03:12:00,37.0,33.0,-100.00,East,99,3.0,4.0,85,-99.99,,,-99.99,,2013-01-09 02:12:00,
2013-01-09 03:22:00,37.0,33.0,-100.00,East,98,4.0,5.0,86,-99.99,,,-99.99,,2013-01-09 02:22:00,
2013-01-09 03:32:00,36.0,32.0,-100.00,East,101,4.0,5.0,86,-99.99,,,-99.99,,2013-01-09 02:32:00,
2013-01-09 03:42:00,36.0,32.0,-100.00,East,98,3.0,4.0,86,-99.99,,,-99.99,,2013-01-09 02:42:00,
2013-01-09 03:52:00,37.0,34.0,-100.00,East,96,0.0,2.0,87,-99.99,,,-99.99,,2013-01-09 02:52:00,
2013-01-09 04:02:00,37.0,34.0,-100.00,East,96,0.0,2.0,87,-99.99,,,-99.99,,2013-01-09 03:02:00,
2013-01-09 04:12:00,37.0,34.0,-100.00,West,270,0.0,0.0,87,-99.99,,,-99.99,,2013-01-09 03:12:00,
2013-01-09 04:22:00,37.0,34.0,-100.00,West,273,0.0,0.0,87,-99.99,,,-99.99,,2013-01-09 03:22:00,
2013-01-09 04:32:00,37.0,34.0,-100.00,West,273,0.0,0.0,87,-99.99,,,-99.99,,2013-01-09 03:32:00,
2013-01-09 04:42:00,38.0,35.0,-100.00,West,277,0.0,0.0,88,-99.99,,,-99.99,,2013-01-09 03:42:00,
2013-01-09 04:52:00,38.0,35.0,-100.00,North,6,0.0,0.0,88,-99.99,,,-99.99,,2013-01-09 03:52:00,
2013-01-09 05:02:00,39.0,36.0,-100.00,West,278,0.0,0.0,88,-99.99,,,-99.99,,2013-01-09 04:02:00,
2013-01-09 05:12:00,39.0,36.0,-100.00,WNW,285,0.0,0.0,88,-99.99,,,-99.99,,2013-01-09 04:12:00,
2013-01-09 05:22:00,38.0,35.0,-100.00,SE,125,0.0,1.0,88,-99.99,,,-99.99,,2013-01-09 04:22:00,
2013-01-09 05:32:00,39.0,36.0,-100.00,SSE,152,0.0,1.0,88,-99.99,,,-99.99,,2013-01-09 04:32:00,
2013-01-09 05:42:00,39.0,36.0,-100.00,SSE,152,0.0,1.0,88,-99.99,,,-99.99,,2013-01-09 04:42:00,
2013-01-09 05:52:00,38.0,35.0,-100.00,SSE,163,0.0,0.0,88,-99.99,,,-99.99,,2013-01-09 04:52:00,
2013-01-09 06:03:00,38.0,35.0,-100.00,NNW,345,0.0,0.0,88,-99.99,,,-99.99,,2013-01-09 05:03:00,
2013-01-09 08:02:00,39.0,36.0,-100.00,SSW,205,20.0,23.0,87,-99.99,,,-99.99,,2013-01-09 07:02:00,
2013-01-09 09:02:00,40.0,37.0,-100.00,SW,214,22.0,26.0,87,-99.99,,,-99.99,,2013-01-09 08:02:00,
2013-01-09 10:02:00,38.0,34.0,-100.00,SW,231,26.0,35.0,86,-99.99,,,-99.99,,2013-01-09 09:02:00,
2013-01-09 11:02:00,35.0,31.0,-100.00,SW,226,38.0,44.0,86,-99.99,,,-99.99,,2013-01-09 10:02:00,
2013-01-09 12:02:00,34.0,30.0,-100.00,SW,220,43.0,52.0,86,-99.99,,,-99.99,,2013-01-09 11:02:00,
2013-01-09 13:03:00,34.0,30.0,-100.00,SW,232,36.0,47.0,86,-99.99,,,-99.99,,2013-01-09 12:03:00,
2013-01-09 14:02:00,33.0,29.0,-100.00,WSW,237,34.0,43.0,86,-99.99,,,-99.99,,2013-01-09 13:02:00,
2013-01-09 15:02:00,33.0,29.0,-100.00,SW,226,55.0,69.0,86,-99.99,,,-99.99,,2013-01-09 14:02:00,
2013-01-09 16:03:00,33.0,29.0,-100.00,SW,219,61.0,79.0,85,-99.99,,,-99.99,,2013-01-09 15:03:00,
2013-01-09 17:03:00,33.0,29.0,-100.00,SW,217,61.0,72.0,85,-99.99,,,-99.99,,2013-01-09 16:03:00,
2013-01-09 18:02:00,33.0,29.0,-100.00,SW,231,55.0,71.0,85,-99.99,,,-99.99,,2013-01-09 17:02:00,
2013-01-09 19:03:00,32.0,28.0,-100.00,WSW,237,43.0,56.0,85,-99.99,,,-99.99,,2013-01-09 18:03:00,
2013-01-09 20:02:00,30.0,26.0,-100.00,WSW,241,40.0,51.0,85,-99.99,,,-99.99,,2013-01-09 19:02:00,
2013-01-09 21:02:00,30.0,26.0,-100.00,WSW,240,39.0,51.0,85,-99.99,,,-99.99,,2013-01-09 20:02:00,
2013-01-09 22:02:00,30.0,26.0,-100.00,SW,233,37.0,56.0,85,-99.99,,,-99.99,,2013-01-09 21:02:00,
2013-01-09 23:03:00,30.0,26.0,-100.00,SW,223,48.0,63.0,84,-99.99,,,-99.99,,2013-01-09 22:03:00,